Fallentimber, Pennsylvania
Current Conditions -  °F | °C
As of 1:54 PM on Sunday 21 Dec 2014 (Local Time) from KFIG Reporting Station
Broken Clouds Broken Clouds  
Wind Chill: 29°   Ceiling: 2100
Heat Index: 29°   Visibility: 10mi
Dew Point: 20°   Wind: 0mph
Humidity: 69%   Direction: NA
Pressure: 30.24"   Gusts: NA
Location:  40.69°N, 78.5°W
Report Text: KFIG 211854Z AUTO 00000KT 10SM BKN021 M02/M07 A3024 RMK AO2 SLP262 T10171067
Loading
Personal Weather Stations






























Interactive Weather Map New forecast layout! Learn more

10-Day Weather Forecast

Advertisements
Track Severe Weather on mobile